Temp: 12.2°C   Hum: 87%
  Wind: 0.0mph   Dir: W (276°)
  Rain: 0.0mm Rate: 0.0mm/hr
  Pressure: 1027.1mb

Historic data

Bath Spa Weather Station Historical Data
Daily Summary for July 01, 2022 Units:  Both    English   Metric
Daily Weekly Monthly Yearly Custom
  High: Low: Average:
Temperature: 61.5 °F /  16.4 °C 50.7 °F /  10.4 °C 56.8 °F /  13.8 °C
Dew Point: 55 °F /  12.8 °C 48.7 °F /  9.3 °C 51.9 °F /  11.1 °C
Humidity: 94% 70.8% 84%
Wind Speed: 7.9mph /  12.7km/h - 2.9mph /  4.7km/h
Wind Gust: 17mph /  27.4km/h - -
Wind- - WSW
Pressure: 30.10 in /  1019.2 hPa 29.96 in /  1014.4 hPa -
Precipitation: 0.02 in /  0.51 mm    
Historical Graphs
 
 
Tabular Data for July 01, 2022
Time Temperature Dew Point Pressure Wind Wind Speed Wind Gust Humidity Rainfall Rate (Hourly) solar
00:09 53.1 °F /  11.7 °C 50.9 °F /  10.5 °C 29.96in /  1014.4hPa West 0.5mph /  0.8km/h 2mph /  3.2km/h 92.4% 0.00in /  0mm 0 W/m2
00:14 53.1 °F /  11.7 °C 51.1 °F /  10.6 °C 29.96in /  1014.4hPa Calm   2mph /  3.2km/h 92.8% 0.00in /  0mm 0 W/m2
00:19 53.2 °F /  11.8 °C 51.3 °F /  10.7 °C 29.96in /  1014.4hPa West 0.8mph /  1.3km/h 2mph /  3.2km/h 93% 0.00in /  0mm 0 W/m2
00:24 53.2 °F /  11.8 °C 51.3 °F /  10.7 °C 29.96in /  1014.4hPa West 0.4mph /  0.6km/h 2mph /  3.2km/h 93% 0.00in /  0mm 0 W/m2
00:29 53.2 °F /  11.8 °C 51.3 °F /  10.7 °C 29.96in /  1014.4hPa Calm   1mph /  1.6km/h 93% 0.00in /  0mm 0 W/m2
00:34 53.4 °F /  11.9 °C 51.4 °F /  10.8 °C 29.96in /  1014.4hPa Calm   1mph /  1.6km/h 93% 0.00in /  0mm 0 W/m2
00:39 53.4 °F /  11.9 °C 51.4 °F /  10.8 °C 29.96in /  1014.4hPa Calm   1mph /  1.6km/h 93% 0.00in /  0mm 0 W/m2
00:44 53.4 °F /  11.9 °C 51.4 °F /  10.8 °C 29.96in /  1014.4hPa West 0.4mph /  0.6km/h 1mph /  1.6km/h 93% 0.00in /  0mm 0 W/m2
00:49 53.4 °F /  11.9 °C 51.4 °F /  10.8 °C 29.97in /  1014.8hPa West 1.2mph /  1.9km/h 2mph /  3.2km/h 93% 0.00in /  0mm 0 W/m2
00:54 53.4 °F /  11.9 °C 51.4 °F /  10.8 °C 29.97in /  1014.8hPa West 1.2mph /  1.9km/h 4mph /  6.4km/h 93% 0.00in /  0mm 0 W/m2
00:59 53.4 °F /  11.9 °C 51.4 °F /  10.8 °C 29.97in /  1014.8hPa West 0.4mph /  0.6km/h 2mph /  3.2km/h 93% 0.00in /  0mm 0 W/m2
01:04 53.4 °F /  11.9 °C 51.4 °F /  10.8 °C 29.96in /  1014.4hPa West 1.2mph /  1.9km/h 3mph /  4.8km/h 93% 0.00in /  0mm 0 W/m2
01:09 53.4 °F /  11.9 °C 51.4 °F /  10.8 °C 29.97in /  1014.8hPa West 0.9mph /  1.4km/h 4mph /  6.4km/h 93% 0.00in /  0mm 0 W/m2
01:14 53.4 °F /  11.9 °C 51.4 °F /  10.8 °C 29.96in /  1014.4hPa West 0.6mph /  1km/h 3mph /  4.8km/h 93% 0.00in /  0mm 0 W/m2
01:19 53.4 °F /  11.9 °C 51.4 °F /  10.8 °C 29.96in /  1014.4hPa West 1.5mph /  2.4km/h 3mph /  4.8km/h 93% 0.00in /  0mm 0 W/m2
01:24 53.4 °F /  11.9 °C 51.4 °F /  10.8 °C 29.96in /  1014.4hPa West 1.3mph /  2.1km/h 3mph /  4.8km/h 93% 0.00in /  0mm 0 W/m2
01:29 53.4 °F /  11.9 °C 51.4 °F /  10.8 °C 29.96in /  1014.4hPa West 1.8mph /  2.9km/h 5mph /  8km/h 93% 0.00in /  0mm 0 W/m2
01:34 53.4 °F /  11.9 °C 51.4 °F /  10.8 °C 29.96in /  1014.4hPa West 2mph /  3.2km/h 3mph /  4.8km/h 93% 0.00in /  0mm 0 W/m2
01:39 53.4 °F /  11.9 °C 51.4 °F /  10.8 °C 29.96in /  1014.4hPa West 1.4mph /  2.3km/h 3mph /  4.8km/h 93% 0.01in /  0.25mm 0 W/m2
01:44 53.4 °F /  11.9 °C 51.4 °F /  10.8 °C 29.96in /  1014.4hPa West 0.7mph /  1.1km/h 3mph /  4.8km/h 93% 0.01in /  0.25mm 0 W/m2
01:49 53.6 °F /  12 °C 51.6 °F /  10.9 °C 29.96in /  1014.4hPa West 1.2mph /  1.9km/h 3mph /  4.8km/h 93% 0.01in /  0.25mm 0 W/m2
01:54 53.6 °F /  12 °C 51.6 °F /  10.9 °C 29.96in /  1014.4hPa West 1.7mph /  2.7km/h 4mph /  6.4km/h 93% 0.01in /  0.25mm 0 W/m2
01:59 53.6 °F /  12 °C 51.6 °F /  10.9 °C 29.96in /  1014.4hPa West 1.3mph /  2.1km/h 2mph /  3.2km/h 93% 0.01in /  0.25mm 0 W/m2
02:04 53.6 °F /  12 °C 51.6 °F /  10.9 °C 29.96in /  1014.4hPa West 0.5mph /  0.8km/h 3mph /  4.8km/h 93% 0.01in /  0.25mm 0 W/m2
02:09 53.7 °F /  12.1 °C 51.7 °F /  10.9 °C 29.96in /  1014.4hPa West 0.8mph /  1.3km/h 2mph /  3.2km/h 93% 0.01in /  0.25mm 0 W/m2
02:14 53.8 °F /  12.1 °C 51.8 °F /  11 °C 29.96in /  1014.4hPa West 0.2mph /  0.3km/h 2mph /  3.2km/h 93% 0.01in /  0.25mm 0 W/m2
02:19 53.8 °F /  12.1 °C 51.8 °F /  11 °C 29.96in /  1014.4hPa West 0.5mph /  0.8km/h 2mph /  3.2km/h 93% 0.01in /  0.25mm 0 W/m2
02:24 53.8 °F /  12.1 °C 51.8 °F /  11 °C 29.96in /  1014.4hPa West 0.9mph /  1.4km/h 2mph /  3.2km/h 93% 0.01in /  0.25mm 0 W/m2
02:29 53.7 °F /  12.1 °C 51.7 °F /  10.9 °C 29.96in /  1014.4hPa West 1.8mph /  2.9km/h 3mph /  4.8km/h 93% 0.01in /  0.25mm 0 W/m2
02:34 53.6 °F /  12 °C 51.6 °F /  10.9 °C 29.96in /  1014.4hPa West 1.7mph /  2.7km/h 4mph /  6.4km/h 93% 0.01in /  0.25mm 0 W/m2
02:39 53.4 °F /  11.9 °C 51.4 °F /  10.8 °C 29.96in /  1014.4hPa SW 2.9mph /  4.7km/h 5mph /  8km/h 93% 0.00in /  0mm 0 W/m2
02:44 53.2 °F /  11.8 °C 51.3 °F /  10.7 °C 29.97in /  1014.8hPa SW 2.2mph /  3.5km/h 4mph /  6.4km/h 93% 0.00in /  0mm 0 W/m2
02:49 53.2 °F /  11.8 °C 51.3 °F /  10.7 °C 29.97in /  1014.8hPa SW 2mph /  3.2km/h 4mph /  6.4km/h 93% 0.00in /  0mm 0 W/m2
02:54 53.1 °F /  11.7 °C 51.1 °F /  10.6 °C 29.97in /  1014.8hPa SW 2.3mph /  3.7km/h 4mph /  6.4km/h 93% 0.00in /  0mm 0 W/m2
02:59 52.9 °F /  11.6 °C 50.9 °F /  10.5 °C 29.97in /  1014.8hPa SW 1.5mph /  2.4km/h 4mph /  6.4km/h 93% 0.00in /  0mm 0 W/m2
03:04 52.7 °F /  11.5 °C 50.7 °F /  10.4 °C 29.97in /  1014.8hPa WSW 2.5mph /  4km/h 4mph /  6.4km/h 93% 0.00in /  0mm 0 W/m2
03:09 52.5 °F /  11.4 °C 50.5 °F /  10.3 °C 29.97in /  1014.8hPa West 0.6mph /  1km/h 4mph /  6.4km/h 93% 0.00in /  0mm 0 W/m2
03:14 52.5 °F /  11.4 °C 50.5 °F /  10.3 °C 29.97in /  1014.8hPa West 1mph /  1.6km/h 4mph /  6.4km/h 93% 0.00in /  0mm 0 W/m2
03:19 52.5 °F /  11.4 °C 50.5 °F /  10.3 °C 29.97in /  1014.8hPa WSW 2.1mph /  3.4km/h 3mph /  4.8km/h 93% 0.00in /  0mm 0 W/m2
03:24 52.5 °F /  11.4 °C 50.5 °F /  10.3 °C 29.97in /  1014.8hPa WSW 0.8mph /  1.3km/h 3mph /  4.8km/h 93% 0.00in /  0mm 0 W/m2
03:29 52.5 °F /  11.4 °C 50.5 °F /  10.3 °C 29.97in /  1014.8hPa WSW 1.3mph /  2.1km/h 4mph /  6.4km/h 93% 0.00in /  0mm 0 W/m2
03:34 52.3 °F /  11.3 °C 50.4 °F /  10.2 °C 29.97in /  1014.8hPa WSW 1.7mph /  2.7km/h 3mph /  4.8km/h 93% 0.00in /  0mm 0 W/m2
03:39 52.3 °F /  11.3 °C 50.4 °F /  10.2 °C 29.97in /  1014.8hPa WSW 1.2mph /  1.9km/h 3mph /  4.8km/h 93% 0.00in /  0mm 0 W/m2
03:44 52.3 °F /  11.3 °C 50.4 °F /  10.2 °C 29.97in /  1014.8hPa WSW 1.6mph /  2.6km/h 3mph /  4.8km/h 93% 0.00in /  0mm 0 W/m2
03:49 52.3 °F /  11.3 °C 50.3 °F /  10.2 °C 29.97in /  1014.8hPa WNW 2.8mph /  4.5km/h 6mph /  9.7km/h 93% 0.00in /  0mm 0 W/m2
03:54 52.2 °F /  11.2 °C 50.2 °F /  10.1 °C 29.97in /  1014.8hPa WNW 1.3mph /  2.1km/h 4mph /  6.4km/h 93% 0.00in /  0mm 0 W/m2
03:59 52.2 °F /  11.2 °C 50.2 °F /  10.1 °C 29.97in /  1014.8hPa WNW 1.3mph /  2.1km/h 2mph /  3.2km/h 93% 0.00in /  0mm 0 W/m2
04:04 52.1 °F /  11.2 °C 50.1 °F /  10.1 °C 29.98in /  1015.1hPa WNW 2.3mph /  3.7km/h 4mph /  6.4km/h 93% 0.00in /  0mm 0 W/m2
04:09 52 °F /  11.1 °C 50 °F /  10 °C 29.98in /  1015.1hPa WNW 1.6mph /  2.6km/h 4mph /  6.4km/h 93% 0.00in /  0mm 0 W/m2
04:14 52 °F /  11.1 °C 50 °F /  10 °C 29.98in /  1015.1hPa WNW 1.6mph /  2.6km/h 4mph /  6.4km/h 93% 0.00in /  0mm 0 W/m2
04:19 52 °F /  11.1 °C 50 °F /  10 °C 29.98in /  1015.1hPa WNW 0.5mph /  0.8km/h 2mph /  3.2km/h 93% 0.00in /  0mm 0 W/m2
04:24 52 °F /  11.1 °C 50 °F /  10 °C 29.98in /  1015.1hPa West 2mph /  3.2km/h 6mph /  9.7km/h 93% 0.00in /  0mm 0 W/m2
04:29 51.8 °F /  11 °C 49.8 °F /  9.9 °C 29.98in /  1015.1hPa West 1.6mph /  2.6km/h 3mph /  4.8km/h 93% 0.00in /  0mm 0 W/m2
04:34 51.7 °F /  10.9 °C 49.7 °F /  9.8 °C 29.98in /  1015.1hPa West 1.3mph /  2.1km/h 3mph /  4.8km/h 93% 0.00in /  0mm 0 W/m2
04:39 51.6 °F /  10.9 °C 49.6 °F /  9.8 °C 29.98in /  1015.1hPa West 0.5mph /  0.8km/h 2mph /  3.2km/h 93% 0.00in /  0mm 0 W/m2
04:44 51.6 °F /  10.9 °C 49.6 °F /  9.8 °C 29.98in /  1015.1hPa West 1.2mph /  1.9km/h 4mph /  6.4km/h 93% 0.00in /  0mm 0 W/m2
04:49 51.5 °F /  10.8 °C 49.5 °F /  9.7 °C 29.98in /  1015.1hPa West 0.2mph /  0.3km/h 3mph /  4.8km/h 93% 0.00in /  0mm 0 W/m2
04:54 51.4 °F /  10.8 °C 49.5 °F /  9.7 °C 29.98in /  1015.1hPa West 1.4mph /  2.3km/h 3mph /  4.8km/h 93% 0.00in /  0mm 0 W/m2
04:59 51.4 °F /  10.8 °C 49.5 °F /  9.7 °C 29.98in /  1015.1hPa West 0.9mph /  1.4km/h 2mph /  3.2km/h 93% 0.00in /  0mm 0 W/m2
05:04 51.3 °F /  10.7 °C 49.3 °F /  9.6 °C 29.98in /  1015.1hPa West 0.4mph /  0.6km/h 2mph /  3.2km/h 93% 0.00in /  0mm 0 W/m2
05:09 51.3 °F /  10.7 °C 49.3 °F /  9.6 °C 29.98in /  1015.1hPa Calm   2mph /  3.2km/h 93% 0.00in /  0mm 5 W/m2
05:14 51.2 °F /  10.7 °C 49.3 °F /  9.6 °C 29.98in /  1015.1hPa Calm   1mph /  1.6km/h 93.2% 0.00in /  0mm 9 W/m2
05:19 51 °F /  10.6 °C 49 °F /  9.4 °C 29.98in /  1015.1hPa West 1.2mph /  1.9km/h 2mph /  3.2km/h 93% 0.00in /  0mm 11 W/m2
05:24 50.8 °F /  10.4 °C 48.8 °F /  9.3 °C 29.99in /  1015.5hPa West 0.8mph /  1.3km/h 2mph /  3.2km/h 93% 0.00in /  0mm 12 W/m2
05:29 50.7 °F /  10.4 °C 48.7 °F /  9.3 °C 29.99in /  1015.5hPa West 1.8mph /  2.9km/h 2mph /  3.2km/h 93% 0.00in /  0mm 18 W/m2
05:34 50.8 °F /  10.4 °C 48.8 °F /  9.3 °C 29.99in /  1015.5hPa West 1.7mph /  2.7km/h 3mph /  4.8km/h 93% 0.00in /  0mm 19 W/m2
05:39 50.9 °F /  10.5 °C 49.3 °F /  9.6 °C 29.99in /  1015.5hPa West 1.2mph /  1.9km/h 3mph /  4.8km/h 94% 0.00in /  0mm 26 W/m2
05:44 50.9 °F /  10.5 °C 49.3 °F /  9.6 °C 29.99in /  1015.5hPa West 0.9mph /  1.4km/h 2mph /  3.2km/h 94% 0.00in /  0mm 37 W/m2
05:49 51 °F /  10.6 °C 49.4 °F /  9.7 °C 29.99in /  1015.5hPa West 1.3mph /  2.1km/h 3mph /  4.8km/h 94% 0.00in /  0mm 37 W/m2
05:54 51.1 °F /  10.6 °C 49.5 °F /  9.7 °C 29.99in /  1015.5hPa West 1.4mph /  2.3km/h 3mph /  4.8km/h 94% 0.00in /  0mm 44 W/m2
05:59 51.2 °F /  10.7 °C 49.6 °F /  9.8 °C 29.99in /  1015.5hPa West 1mph /  1.6km/h 3mph /  4.8km/h 94% 0.00in /  0mm 47 W/m2
06:04 51.3 °F /  10.7 °C 49.6 °F /  9.8 °C 29.99in /  1015.5hPa West 0.2mph /  0.3km/h 2mph /  3.2km/h 94% 0.00in /  0mm 58 W/m2
06:09 51.4 °F /  10.8 °C 49.8 °F /  9.9 °C 29.99in /  1015.5hPa West 1mph /  1.6km/h 2mph /  3.2km/h 94% 0.00in /  0mm 84 W/m2
06:14 51.6 °F /  10.9 °C 50 °F /  10 °C 29.99in /  1015.5hPa Calm   2mph /  3.2km/h 94% 0.00in /  0mm 84 W/m2
06:19 51.8 °F /  11 °C 50.2 °F /  10.1 °C 29.99in /  1015.5hPa West 0.4mph /  0.6km/h 2mph /  3.2km/h 94% 0.00in /  0mm 93 W/m2
06:24 52.1 °F /  11.2 °C 50.5 °F /  10.3 °C 29.99in /  1015.5hPa Calm   2mph /  3.2km/h 94% 0.00in /  0mm 83 W/m2
06:29 52.3 °F /  11.3 °C 50.6 °F /  10.3 °C 30.00in /  1015.8hPa Calm     94% 0.00in /  0mm 72 W/m2
06:34 52.4 °F /  11.3 °C 50.8 °F /  10.4 °C 30.00in /  1015.8hPa West 1.1mph /  1.8km/h 2mph /  3.2km/h 94% 0.00in /  0mm 93 W/m2
06:39 52.7 °F /  11.5 °C 51.1 °F /  10.6 °C 30.00in /  1015.8hPa West 0.7mph /  1.1km/h 2mph /  3.2km/h 94% 0.00in /  0mm 107 W/m2
06:44 52.9 °F /  11.6 °C 51.3 °F /  10.7 °C 30.00in /  1015.8hPa Calm   1mph /  1.6km/h 94% 0.00in /  0mm 98 W/m2
06:49 52.8 °F /  11.6 °C 51.2 °F /  10.7 °C 30.00in /  1015.8hPa Calm   1mph /  1.6km/h 94% 0.00in /  0mm 98 W/m2
06:54 52.9 °F /  11.6 °C 51.3 °F /  10.7 °C 30.00in /  1015.8hPa West 0.9mph /  1.4km/h 2mph /  3.2km/h 94% 0.00in /  0mm 95 W/m2
06:59 53.1 °F /  11.7 °C 51.4 °F /  10.8 °C 30.00in /  1015.8hPa West 0.4mph /  0.6km/h 2mph /  3.2km/h 94% 0.00in /  0mm 95 W/m2
07:04 53.2 °F /  11.8 °C 51.6 °F /  10.9 °C 30.00in /  1015.8hPa West 0.4mph /  0.6km/h 2mph /  3.2km/h 94% 0.00in /  0mm 111 W/m2
07:09 53.4 °F /  11.9 °C 51.8 °F /  11 °C 30.00in /  1015.8hPa West 0.4mph /  0.6km/h 3mph /  4.8km/h 94% 0.00in /  0mm 139 W/m2
07:14 53.5 °F /  11.9 °C 51.9 °F /  11.1 °C 30.01in /  1016.1hPa West 0.8mph /  1.3km/h 2mph /  3.2km/h 94% 0.00in /  0mm 144 W/m2
07:19 54 °F /  12.2 °C 52.3 °F /  11.3 °C 30.01in /  1016.1hPa West 1.9mph /  3.1km/h 4mph /  6.4km/h 94% 0.00in /  0mm 121 W/m2
07:24 54.1 °F /  12.3 °C 52.5 °F /  11.4 °C 30.01in /  1016.1hPa West 1.8mph /  2.9km/h 4mph /  6.4km/h 94% 0.00in /  0mm 105 W/m2
07:29 54.4 °F /  12.4 °C 52.8 °F /  11.6 °C 30.01in /  1016.1hPa West 1.3mph /  2.1km/h 3mph /  4.8km/h 94% 0.00in /  0mm 93 W/m2
07:34 54.5 °F /  12.5 °C 52.9 °F /  11.6 °C 30.01in /  1016.1hPa West 2.6mph /  4.2km/h 6mph /  9.7km/h 94% 0.00in /  0mm 83 W/m2
07:39 54.5 °F /  12.5 °C 52.9 °F /  11.6 °C 30.01in /  1016.1hPa West 1.6mph /  2.6km/h 4mph /  6.4km/h 94% 0.00in /  0mm 100 W/m2
07:44 54.7 °F /  12.6 °C 53.1 °F /  11.7 °C 30.01in /  1016.1hPa West 3.2mph /  5.1km/h 7mph /  11.3km/h 94% 0.01in /  0.25mm 158 W/m2
07:49 54.7 °F /  12.6 °C 53.1 °F /  11.7 °C 30.01in /  1016.1hPa West 2.4mph /  3.9km/h 5mph /  8km/h 94% 0.01in /  0.25mm 179 W/m2
07:54 54.9 °F /  12.7 °C 53.2 °F /  11.8 °C 30.01in /  1016.1hPa West 2.4mph /  3.9km/h 4mph /  6.4km/h 94% 0.01in /  0.25mm 176 W/m2
07:59 54.9 °F /  12.7 °C 53.2 °F /  11.8 °C 30.01in /  1016.1hPa West 2.8mph /  4.5km/h 6mph /  9.7km/h 94% 0.01in /  0.25mm 151 W/m2
08:04 54.8 °F /  12.7 °C 53.1 °F /  11.7 °C 30.01in /  1016.1hPa West 4.8mph /  7.7km/h 7mph /  11.3km/h 94% 0.01in /  0.25mm 142 W/m2
08:09 54.9 °F /  12.7 °C 53.2 °F /  11.8 °C 30.01in /  1016.1hPa West 2.7mph /  4.3km/h 9mph /  14.5km/h 94% 0.01in /  0.25mm 137 W/m2
08:14 54.9 °F /  12.7 °C 53.2 °F /  11.8 °C 30.01in /  1016.1hPa West 3.3mph /  5.3km/h 7mph /  11.3km/h 94% 0.02in /  0.51mm 137 W/m2
08:19 54.9 °F /  12.7 °C 53.2 °F /  11.8 °C 30.01in /  1016.1hPa West 2.9mph /  4.7km/h 7mph /  11.3km/h 94% 0.02in /  0.51mm 121 W/m2
08:24 54.9 °F /  12.7 °C 53.2 °F /  11.8 °C 30.01in /  1016.1hPa WSW 3.7mph /  6km/h 7mph /  11.3km/h 94% 0.02in /  0.51mm 125 W/m2
08:29 55 °F /  12.8 °C 53.4 °F /  11.9 °C 30.01in /  1016.1hPa WSW 1.7mph /  2.7km/h 5mph /  8km/h 94% 0.02in /  0.51mm 128 W/m2
08:34 55 °F /  12.8 °C 53.4 °F /  11.9 °C 30.01in /  1016.1hPa WSW 3mph /  4.8km/h 5mph /  8km/h 94% 0.02in /  0.51mm 120 W/m2
08:39 55.1 °F /  12.8 °C 53.5 °F /  11.9 °C 30.01in /  1016.1hPa West 3.4mph /  5.5km/h 6mph /  9.7km/h 94% 0.02in /  0.51mm 123 W/m2
08:44 55.1 °F /  12.8 °C 53.5 °F /  11.9 °C 30.02in /  1016.5hPa West 3.3mph /  5.3km/h 5mph /  8km/h 94% 0.02in /  0.51mm 137 W/m2
08:49 55.1 °F /  12.8 °C 53.5 °F /  11.9 °C 30.02in /  1016.5hPa WSW 3.2mph /  5.1km/h 8mph /  12.9km/h 94% 0.01in /  0.25mm 135 W/m2
08:54 55 °F /  12.8 °C 53.4 °F /  11.9 °C 30.02in /  1016.5hPa WSW 3.7mph /  6km/h 7mph /  11.3km/h 94% 0.01in /  0.25mm 125 W/m2
08:59 55.1 °F /  12.8 °C 53.3 °F /  11.8 °C 30.02in /  1016.5hPa WSW 2.5mph /  4km/h 5mph /  8km/h 93.4% 0.01in /  0.25mm 165 W/m2
09:04 55.2 °F /  12.9 °C 53.2 °F /  11.8 °C 30.02in /  1016.5hPa SW 4mph /  6.4km/h 7mph /  11.3km/h 93% 0.01in /  0.25mm 181 W/m2
09:09 55.2 °F /  12.9 °C 53.2 °F /  11.8 °C 30.02in /  1016.5hPa WSW 2.8mph /  4.5km/h 7mph /  11.3km/h 93% 0.01in /  0.25mm 202 W/m2
09:14 55.4 °F /  13 °C 53.4 °F /  11.9 °C 30.02in /  1016.5hPa WSW 4mph /  6.4km/h 8mph /  12.9km/h 93% 0.01in /  0.25mm 204 W/m2
09:19 55.6 °F /  13.1 °C 53.6 °F /  12 °C 30.02in /  1016.5hPa WSW 4.4mph /  7.1km/h 6mph /  9.7km/h 93% 0.00in /  0mm 200 W/m2
09:24 55.9 °F /  13.3 °C 53.9 °F /  12.2 °C 30.02in /  1016.5hPa WSW 2.6mph /  4.2km/h 5mph /  8km/h 93% 0.00in /  0mm 227 W/m2
09:29 56.1 °F /  13.4 °C 54.1 °F /  12.3 °C 30.02in /  1016.5hPa West 2.5mph /  4km/h 6mph /  9.7km/h 93% 0.00in /  0mm 246 W/m2
09:34 56.5 °F /  13.6 °C 54.4 °F /  12.4 °C 30.02in /  1016.5hPa WSW 2.5mph /  4km/h 5mph /  8km/h 92.8% 0.00in /  0mm 234 W/m2
09:39 56.6 °F /  13.7 °C 54.5 °F /  12.5 °C 30.02in /  1016.5hPa WSW 2.5mph /  4km/h 7mph /  11.3km/h 92.8% 0.00in /  0mm 229 W/m2
09:44 56.7 °F /  13.7 °C 54.4 °F /  12.4 °C 30.02in /  1016.5hPa West 2.7mph /  4.3km/h 7mph /  11.3km/h 92% 0.00in /  0mm 202 W/m2
09:49 56.9 °F /  13.8 °C 54.6 °F /  12.6 °C 30.03in /  1016.8hPa WSW 4mph /  6.4km/h 8mph /  12.9km/h 92% 0.00in /  0mm 257 W/m2
09:54 57 °F /  13.9 °C 54.7 °F /  12.6 °C 30.03in /  1016.8hPa WSW 2.8mph /  4.5km/h 8mph /  12.9km/h 92% 0.00in /  0mm 253 W/m2
09:59 57.4 °F /  14.1 °C 55 °F /  12.8 °C 30.03in /  1016.8hPa West 6mph /  9.7km/h 10mph /  16.1km/h 91.6% 0.00in /  0mm 248 W/m2
10:04 57.5 °F /  14.2 °C 55 °F /  12.8 °C 30.03in /  1016.8hPa West 4.4mph /  7.1km/h 11mph /  17.7km/h 91% 0.00in /  0mm 269 W/m2
10:09 57.7 °F /  14.3 °C 55 °F /  12.8 °C 30.03in /  1016.8hPa West 4.5mph /  7.2km/h 8mph /  12.9km/h 90.4% 0.00in /  0mm 295 W/m2
10:14 57.7 °F /  14.3 °C 54.7 °F /  12.6 °C 30.03in /  1016.8hPa West 4.5mph /  7.2km/h 9mph /  14.5km/h 89.4% 0.00in /  0mm 313 W/m2
10:19 58 °F /  14.4 °C 54.7 °F /  12.6 °C 30.03in /  1016.8hPa West 5.5mph /  8.9km/h 12mph /  19.3km/h 88.6% 0.00in /  0mm 359 W/m2
10:24 58.4 °F /  14.7 °C 54.7 °F /  12.6 °C 30.03in /  1016.8hPa West 4.5mph /  7.2km/h 11mph /  17.7km/h 87.4% 0.00in /  0mm 461 W/m2
10:29 58.8 °F /  14.9 °C 54.7 °F /  12.6 °C 30.03in /  1016.8hPa WSW 7.9mph /  12.7km/h 12mph /  19.3km/h 86% 0.00in /  0mm 603 W/m2
10:34 59.2 °F /  15.1 °C 54.2 °F /  12.3 °C 30.03in /  1016.8hPa West 5.3mph /  8.5km/h 10mph /  16.1km/h 83.8% 0.00in /  0mm 636 W/m2
10:39 59.5 °F /  15.3 °C 54 °F /  12.2 °C 30.03in /  1016.8hPa West 6.2mph /  10km/h 11mph /  17.7km/h 82% 0.00in /  0mm 561 W/m2
10:44 59.9 °F /  15.5 °C 54.1 °F /  12.3 °C 30.03in /  1016.8hPa WSW 3.7mph /  6km/h 9mph /  14.5km/h 81% 0.00in /  0mm 550 W/m2
10:49 60.2 °F /  15.7 °C 53.9 °F /  12.2 °C 30.03in /  1016.8hPa West 2.8mph /  4.5km/h 10mph /  16.1km/h 79.4% 0.00in /  0mm 506 W/m2
10:54 60.3 °F /  15.7 °C 53.5 °F /  11.9 °C 30.03in /  1016.8hPa West 5.9mph /  9.5km/h 14mph /  22.5km/h 78.2% 0.00in /  0mm 255 W/m2
10:59 60.2 °F /  15.7 °C 53 °F /  11.7 °C 30.03in /  1016.8hPa West 6.2mph /  10km/h 13mph /  20.9km/h 77% 0.00in /  0mm 260 W/m2
11:04 59.8 °F /  15.4 °C 52.9 °F /  11.6 °C 30.03in /  1016.8hPa WNW 6.2mph /  10km/h 13mph /  20.9km/h 77.8% 0.00in /  0mm 339 W/m2
11:09 60.2 °F /  15.7 °C 53.2 °F /  11.8 °C 30.03in /  1016.8hPa West 5.4mph /  8.7km/h 9mph /  14.5km/h 77.4% 0.00in /  0mm 380 W/m2
11:14 60.3 °F /  15.7 °C 52.5 °F /  11.4 °C 30.03in /  1016.8hPa West 5.4mph /  8.7km/h 11mph /  17.7km/h 75.4% 0.00in /  0mm 260 W/m2
11:19 60.3 °F /  15.7 °C 52.6 °F /  11.4 °C 30.03in /  1016.8hPa WNW 5.4mph /  8.7km/h 9mph /  14.5km/h 75.8% 0.00in /  0mm 891 W/m2
11:24 60.9 °F /  16.1 °C 53.6 °F /  12 °C 30.03in /  1016.8hPa WNW 6.8mph /  10.9km/h 13mph /  20.9km/h 76.8% 0.00in /  0mm 1079 W/m2
11:29 61.3 °F /  16.3 °C 53.6 °F /  12 °C 30.03in /  1016.8hPa West 5.7mph /  9.2km/h 13mph /  20.9km/h 75.6% 0.00in /  0mm 1079 W/m2
11:34 61.3 °F /  16.3 °C 53.2 °F /  11.8 °C 30.03in /  1016.8hPa West 5.3mph /  8.5km/h 14mph /  22.5km/h 74.4% 0.00in /  0mm 483 W/m2
11:39 61.5 °F /  16.4 °C 53.2 °F /  11.8 °C 30.03in /  1016.8hPa West 4.9mph /  7.9km/h 13mph /  20.9km/h 74% 0.00in /  0mm 455 W/m2
11:44 61.1 °F /  16.2 °C 52.2 °F /  11.2 °C 30.03in /  1016.8hPa West 7.8mph /  12.6km/h 13mph /  20.9km/h 72.4% 0.00in /  0mm 345 W/m2
11:49 60.8 °F /  16 °C 51.9 °F /  11.1 °C 30.03in /  1016.8hPa West 6.2mph /  10km/h 10mph /  16.1km/h 72.4% 0.00in /  0mm 223 W/m2
11:54 60.4 °F /  15.8 °C 51.4 °F /  10.8 °C 30.03in /  1016.8hPa WSW 6mph /  9.7km/h 10mph /  16.1km/h 72% 0.00in /  0mm 156 W/m2
11:59 60.3 °F /  15.7 °C 51.6 °F /  10.9 °C 30.04in /  1017.2hPa West 6.7mph /  10.8km/h 10mph /  16.1km/h 72.8% 0.00in /  0mm 132 W/m2
12:04 59.9 °F /  15.5 °C 51.3 °F /  10.7 °C 30.04in /  1017.2hPa West 5.6mph /  9km/h 9mph /  14.5km/h 73% 0.00in /  0mm 197 W/m2
12:09 59.7 °F /  15.4 °C 51.1 °F /  10.6 °C 30.03in /  1016.8hPa West 4.4mph /  7.1km/h 10mph /  16.1km/h 73% 0.00in /  0mm 234 W/m2
12:14 60 °F /  15.6 °C 51.1 °F /  10.6 °C 30.04in /  1017.2hPa SW 4.7mph /  7.6km/h 8mph /  12.9km/h 72.3% 0.00in /  0mm 211 W/m2
12:19 60.1 °F /  15.6 °C 51.1 °F /  10.6 °C 30.04in /  1017.2hPa West 5mph /  8km/h 9mph /  14.5km/h 72% 0.00in /  0mm 227 W/m2
12:24 60.1 °F /  15.6 °C 50.8 °F /  10.4 °C 30.04in /  1017.2hPa West 2.9mph /  4.7km/h 9mph /  14.5km/h 71.2% 0.00in /  0mm 292 W/m2
12:29 60.3 °F /  15.7 °C 51.1 °F /  10.6 °C 30.04in /  1017.2hPa WSW 4mph /  6.4km/h 7mph /  11.3km/h 71.4% 0.00in /  0mm 299 W/m2
12:34 60.5 °F /  15.8 °C 51.4 °F /  10.8 °C 30.04in /  1017.2hPa West 3.3mph /  5.3km/h 6mph /  9.7km/h 71.8% 0.00in /  0mm 223 W/m2
12:39 60.5 °F /  15.8 °C 51.3 °F /  10.7 °C 30.04in /  1017.2hPa WSW 4.5mph /  7.2km/h 8mph /  12.9km/h 71.4% 0.00in /  0mm 167 W/m2
12:44 60.4 °F /  15.8 °C 51.2 °F /  10.7 °C 30.04in /  1017.2hPa SW 4.1mph /  6.6km/h 7mph /  11.3km/h 71.4% 0.00in /  0mm 118 W/m2
12:49 60.4 °F /  15.8 °C 51.3 °F /  10.7 °C 30.04in /  1017.2hPa WSW 4mph /  6.4km/h 6mph /  9.7km/h 71.8% 0.00in /  0mm 93 W/m2
12:54 60.4 °F /  15.8 °C 51.4 °F /  10.8 °C 30.04in /  1017.2hPa WSW 3.9mph /  6.3km/h 9mph /  14.5km/h 72% 0.00in /  0mm 77 W/m2
12:59 60.3 °F /  15.7 °C 51.5 °F /  10.8 °C 30.04in /  1017.2hPa WSW 3.6mph /  5.8km/h 7mph /  11.3km/h 72.6% 0.00in /  0mm 114 W/m2
13:04 60 °F /  15.6 °C 51.4 °F /  10.8 °C 30.04in /  1017.2hPa SW 3mph /  4.8km/h 6mph /  9.7km/h 73% 0.00in /  0mm 127 W/m2
13:09 59.8 °F /  15.4 °C 51.2 °F /  10.7 °C 30.04in /  1017.2hPa SW 4mph /  6.4km/h 7mph /  11.3km/h 73.2% 0.00in /  0mm 139 W/m2
13:14 59.7 °F /  15.4 °C 51 °F /  10.6 °C 30.04in /  1017.2hPa WSW 3.3mph /  5.3km/h 6mph /  9.7km/h 72.6% 0.00in /  0mm 149 W/m2
13:19 60.1 °F /  15.6 °C 50.9 °F /  10.5 °C 30.04in /  1017.2hPa SW 3.4mph /  5.5km/h 6mph /  9.7km/h 71.6% 0.00in /  0mm 199 W/m2
13:24 60.2 °F /  15.7 °C 51 °F /  10.6 °C 30.04in /  1017.2hPa SW 1.7mph /  2.7km/h 4mph /  6.4km/h 71.5% 0.00in /  0mm 186 W/m2
13:29 60.4 °F /  15.8 °C 51.4 °F /  10.8 °C 30.04in /  1017.2hPa WSW 3.6mph /  5.8km/h 6mph /  9.7km/h 72% 0.00in /  0mm 156 W/m2
13:34 60.2 °F /  15.7 °C 51.4 °F /  10.8 °C 30.04in /  1017.2hPa WNW 5.6mph /  9km/h 10mph /  16.1km/h 72.6% 0.00in /  0mm 107 W/m2
13:39 59.7 °F /  15.4 °C 51.5 °F /  10.8 °C 30.04in /  1017.2hPa WNW 5.1mph /  8.2km/h 8mph /  12.9km/h 74.2% 0.00in /  0mm 104 W/m2
13:44 59.4 °F /  15.2 °C 51.6 °F /  10.9 °C 30.05in /  1017.5hPa WNW 7.8mph /  12.6km/h 17mph /  27.4km/h 75.4% 0.00in /  0mm 70 W/m2
13:49 58.9 °F /  14.9 °C 51.4 °F /  10.8 °C 30.05in /  1017.5hPa West 7mph /  11.3km/h 16mph /  25.7km/h 76% 0.00in /  0mm 79 W/m2
13:54 58.3 °F /  14.6 °C 51.2 °F /  10.7 °C 30.05in /  1017.5hPa WNW 6.7mph /  10.8km/h 14mph /  22.5km/h 77.2% 0.00in /  0mm 102 W/m2
13:59 57.5 °F /  14.2 °C 50.8 °F /  10.4 °C 30.05in /  1017.5hPa West 4.7mph /  7.6km/h 13mph /  20.9km/h 78.4% 0.00in /  0mm 165 W/m2
14:04 57.2 °F /  14 °C 51 °F /  10.6 °C 30.06in /  1017.8hPa West 5.4mph /  8.7km/h 10mph /  16.1km/h 79.8% 0.00in /  0mm 221 W/m2
14:09 57.4 °F /  14.1 °C 51.5 °F /  10.8 °C 30.06in /  1017.8hPa WSW 3.6mph /  5.8km/h 7mph /  11.3km/h 80.8% 0.00in /  0mm 346 W/m2
14:14 57.6 °F /  14.2 °C 51.8 °F /  11 °C 30.06in /  1017.8hPa WSW 3.6mph /  5.8km/h 7mph /  11.3km/h 81% 0.00in /  0mm 366 W/m2
14:19 57.9 °F /  14.4 °C 52.5 °F /  11.4 °C 30.06in /  1017.8hPa West 4mph /  6.4km/h 7mph /  11.3km/h 82% 0.00in /  0mm 341 W/m2
14:24 58.2 °F /  14.6 °C 52.3 °F /  11.3 °C 30.05in /  1017.5hPa West 4.2mph /  6.8km/h 10mph /  16.1km/h 80.6% 0.00in /  0mm 171 W/m2
14:29 58.3 °F /  14.6 °C 52.2 °F /  11.2 °C 30.05in /  1017.5hPa West 3.2mph /  5.1km/h 8mph /  12.9km/h 80% 0.00in /  0mm 118 W/m2
14:34 58.5 °F /  14.7 °C 52.2 °F /  11.2 °C 30.05in /  1017.5hPa WSW 3.3mph /  5.3km/h 6mph /  9.7km/h 79.6% 0.00in /  0mm 113 W/m2
14:39 58.5 °F /  14.7 °C 52 °F /  11.1 °C 30.06in /  1017.8hPa SW 2.9mph /  4.7km/h 7mph /  11.3km/h 79% 0.00in /  0mm 148 W/m2
14:44 58.6 °F /  14.8 °C 52.1 °F /  11.2 °C 30.06in /  1017.8hPa SW 3mph /  4.8km/h 5mph /  8km/h 78.8% 0.00in /  0mm 178 W/m2
14:49 58.8 °F /  14.9 °C 52.3 °F /  11.3 °C 30.06in /  1017.8hPa SW 2.6mph /  4.2km/h 6mph /  9.7km/h 79% 0.00in /  0mm 188 W/m2
14:54 58.8 °F /  14.9 °C 52.3 °F /  11.3 °C 30.05in /  1017.5hPa SSW 3.2mph /  5.1km/h 7mph /  11.3km/h 79% 0.00in /  0mm 243 W/m2
14:59 58.6 °F /  14.8 °C 52.2 °F /  11.2 °C 30.06in /  1017.8hPa SSW 3.2mph /  5.1km/h 7mph /  11.3km/h 79% 0.00in /  0mm 322 W/m2
15:04 58.6 °F /  14.8 °C 52.1 °F /  11.2 °C 30.05in /  1017.5hPa SSW 3.7mph /  6km/h 7mph /  11.3km/h 79% 0.00in /  0mm 352 W/m2
15:09 58.6 °F /  14.8 °C 52.1 °F /  11.2 °C 30.05in /  1017.5hPa South 3.7mph /  6km/h 8mph /  12.9km/h 78.6% 0.00in /  0mm 380 W/m2
15:14 58.8 °F /  14.9 °C 52 °F /  11.1 °C 30.06in /  1017.8hPa SSW 3.6mph /  5.8km/h 8mph /  12.9km/h 78% 0.00in /  0mm 403 W/m2
15:19 59.3 °F /  15.2 °C 52.4 °F /  11.3 °C 30.06in /  1017.8hPa South 3.8mph /  6.1km/h 6mph /  9.7km/h 78% 0.00in /  0mm 559 W/m2
15:24 59.6 °F /  15.3 °C 52.8 °F /  11.6 °C 30.06in /  1017.8hPa SW 2.7mph /  4.3km/h 6mph /  9.7km/h 78% 0.00in /  0mm 895 W/m2
15:29 60.7 °F /  15.9 °C 53.7 °F /  12.1 °C 30.06in /  1017.8hPa SSW 2.5mph /  4km/h 6mph /  9.7km/h 77.8% 0.00in /  0mm 956 W/m2
15:34 61.1 °F /  16.2 °C 53.8 °F /  12.1 °C 30.06in /  1017.8hPa South 3.3mph /  5.3km/h 6mph /  9.7km/h 76.8% 0.00in /  0mm 338 W/m2
15:39 61.2 °F /  16.2 °C 53.6 °F /  12 °C 30.05in /  1017.5hPa South 3.5mph /  5.6km/h 11mph /  17.7km/h 75.8% 0.00in /  0mm 796 W/m2
15:44 61.5 °F /  16.4 °C 53.4 °F /  11.9 °C 30.05in /  1017.5hPa SSW 5mph /  8km/h 11mph /  17.7km/h 74.6% 0.00in /  0mm 796 W/m2
15:49 61.4 °F /  16.3 °C 51.8 °F /  11 °C 30.05in /  1017.5hPa SW 6.2mph /  10km/h 11mph /  17.7km/h 70.8% 0.00in /  0mm 338 W/m2
15:54 61.2 °F /  16.2 °C 51.7 °F /  10.9 °C 30.05in /  1017.5hPa SSW 4.2mph /  6.8km/h 10mph /  16.1km/h 71% 0.00in /  0mm 144 W/m2
15:59 61.2 °F /  16.2 °C 52 °F /  11.1 °C 30.05in /  1017.5hPa SW 6.7mph /  10.8km/h 10mph /  16.1km/h 72% 0.00in /  0mm 74 W/m2
16:04 61.2 °F /  16.2 °C 52.3 °F /  11.3 °C 30.05in /  1017.5hPa SW 3.5mph /  5.6km/h 7mph /  11.3km/h 72.6% 0.00in /  0mm 39 W/m2
16:09 61 °F /  16.1 °C 52.5 °F /  11.4 °C 30.05in /  1017.5hPa West 3.5mph /  5.6km/h 10mph /  16.1km/h 73.6% 0.00in /  0mm 30 W/m2
16:14 60.6 °F /  15.9 °C 52.9 °F /  11.6 °C 30.06in /  1017.8hPa West 3.4mph /  5.5km/h 7mph /  11.3km/h 75.6% 0.00in /  0mm 65 W/m2
16:19 60.4 °F /  15.8 °C 53.1 °F /  11.7 °C 30.06in /  1017.8hPa WSW 2.3mph /  3.7km/h 6mph /  9.7km/h 76.8% 0.00in /  0mm 86 W/m2
16:24 60.3 °F /  15.7 °C 53.1 °F /  11.7 °C 30.06in /  1017.8hPa SW 4.3mph /  6.9km/h 9mph /  14.5km/h 77% 0.00in /  0mm 111 W/m2
16:29 59.9 °F /  15.5 °C 52.7 °F /  11.5 °C 30.06in /  1017.8hPa WSW 3.3mph /  5.3km/h 9mph /  14.5km/h 77% 0.00in /  0mm 214 W/m2
16:34 59.8 °F /  15.4 °C 52.9 °F /  11.6 °C 30.06in /  1017.8hPa SW 3.6mph /  5.8km/h 6mph /  9.7km/h 77.8% 0.00in /  0mm 385 W/m2
16:39 60.2 °F /  15.7 °C 53.3 °F /  11.8 °C 30.06in /  1017.8hPa SW 2.9mph /  4.7km/h 6mph /  9.7km/h 78% 0.00in /  0mm 424 W/m2
16:44 60.5 °F /  15.8 °C 54 °F /  12.2 °C 30.06in /  1017.8hPa SW 2.5mph /  4km/h 6mph /  9.7km/h 78.8% 0.00in /  0mm 424 W/m2
16:49 60.7 °F /  15.9 °C 53.7 °F /  12.1 °C 30.06in /  1017.8hPa South 3.6mph /  5.8km/h 6mph /  9.7km/h 77.4% 0.00in /  0mm 835 W/m2
16:53 60.8 °F /  16 °C 53.5 °F /  11.9 °C 30.06in /  1017.8hPa SW 4.5mph /  7.2km/h 8mph /  12.9km/h 76.8% 0.00in /  0mm 225 W/m2
16:59 60.9 °F /  16.1 °C 53.3 °F /  11.8 °C 30.06in /  1017.8hPa SW 3.7mph /  6km/h 8mph /  12.9km/h 76% 0.00in /  0mm 185 W/m2
17:04 61.2 °F /  16.2 °C 53.6 °F /  12 °C 30.06in /  1017.8hPa SSW 2.1mph /  3.4km/h 7mph /  11.3km/h 76% 0.00in /  0mm 211 W/m2
17:09 61.3 °F /  16.3 °C 53.7 °F /  12.1 °C 30.06in /  1017.8hPa SSW 4.5mph /  7.2km/h 7mph /  11.3km/h 75.8% 0.00in /  0mm 216 W/m2
17:14 61.3 °F /  16.3 °C 53.4 °F /  11.9 °C 30.06in /  1017.8hPa SW 4.1mph /  6.6km/h 7mph /  11.3km/h 75% 0.00in /  0mm 155 W/m2
17:19 61.3 °F /  16.3 °C 53.2 °F /  11.8 °C 30.06in /  1017.8hPa SSW 4.9mph /  7.9km/h 9mph /  14.5km/h 74.2% 0.00in /  0mm 137 W/m2
17:24 61.2 °F /  16.2 °C 52.9 °F /  11.6 °C 30.06in /  1017.8hPa SSW 3.7mph /  6km/h 9mph /  14.5km/h 74% 0.00in /  0mm 118 W/m2
17:29 61.2 °F /  16.2 °C 52.9 °F /  11.6 °C 30.06in /  1017.8hPa SSW 4mph /  6.4km/h 8mph /  12.9km/h 74% 0.00in /  0mm 232 W/m2
17:34 61.2 °F /  16.2 °C 52.9 °F /  11.6 °C 30.06in /  1017.8hPa SSW 4.9mph /  7.9km/h 11mph /  17.7km/h 74% 0.00in /  0mm 185 W/m2
17:39 61 °F /  16.1 °C 52.7 °F /  11.5 °C 30.06in /  1017.8hPa SW 6.3mph /  10.1km/h 11mph /  17.7km/h 74% 0.00in /  0mm 91 W/m2
17:44 60.6 °F /  15.9 °C 52.7 °F /  11.5 °C 30.06in /  1017.8hPa SW 4.4mph /  7.1km/h 9mph /  14.5km/h 74.8% 0.00in /  0mm 127 W/m2
17:49 60.8 °F /  16 °C 53.1 °F /  11.7 °C 30.06in /  1017.8hPa WSW 4.8mph /  7.7km/h 9mph /  14.5km/h 75.6% 0.00in /  0mm 139 W/m2
17:54 60.9 °F /  16.1 °C 53.2 °F /  11.8 °C 30.06in /  1017.8hPa West 4.3mph /  6.9km/h 8mph /  12.9km/h 75.6% 0.00in /  0mm 142 W/m2
17:59 60.9 °F /  16.1 °C 52.7 °F /  11.5 °C 30.06in /  1017.8hPa WSW 7mph /  11.3km/h 12mph /  19.3km/h 74.2% 0.00in /  0mm 174 W/m2
18:04 60.8 °F /  16 °C 52.1 °F /  11.2 °C 30.06in /  1017.8hPa West 5.4mph /  8.7km/h 11mph /  17.7km/h 72.8% 0.00in /  0mm 195 W/m2
18:09 60.8 °F /  16 °C 51.9 °F /  11.1 °C 30.06in /  1017.8hPa West 6.4mph /  10.3km/h 11mph /  17.7km/h 72.2% 0.00in /  0mm 193 W/m2
18:14 61 °F /  16.1 °C 52.2 °F /  11.2 °C 30.06in /  1017.8hPa West 4.1mph /  6.6km/h 10mph /  16.1km/h 72.6% 0.00in /  0mm 176 W/m2
18:19 61 °F /  16.1 °C 52.3 °F /  11.3 °C 30.06in /  1017.8hPa West 4.1mph /  6.6km/h 9mph /  14.5km/h 73% 0.00in /  0mm 151 W/m2
18:23 61 °F /  16.1 °C 52.3 °F /  11.3 °C 30.06in /  1017.8hPa West 5.2mph /  8.4km/h 12mph /  19.3km/h 73% 0.00in /  0mm 144 W/m2
18:29 60.6 °F /  15.9 °C 52 °F /  11.1 °C 30.06in /  1017.8hPa West 5.9mph /  9.5km/h 10mph /  16.1km/h 73% 0.00in /  0mm 120 W/m2
18:34 60.4 °F /  15.8 °C 51.8 °F /  11 °C 30.06in /  1017.8hPa WSW 3.9mph /  6.3km/h 8mph /  12.9km/h 73% 0.00in /  0mm 127 W/m2
18:39 60.4 °F /  15.8 °C 51.8 °F /  11 °C 30.06in /  1017.8hPa WSW 4.1mph /  6.6km/h 7mph /  11.3km/h 73% 0.00in /  0mm 128 W/m2
18:44 60.4 °F /  15.8 °C 51.8 °F /  11 °C 30.06in /  1017.8hPa West 5.1mph /  8.2km/h 9mph /  14.5km/h 73% 0.00in /  0mm 116 W/m2
18:49 60.4 °F /  15.8 °C 51.8 °F /  11 °C 30.06in /  1017.8hPa WSW 3.1mph /  5km/h 8mph /  12.9km/h 73% 0.00in /  0mm 139 W/m2
18:54 60.4 °F /  15.8 °C 51.9 °F /  11.1 °C 30.07in /  1018.2hPa WNW 4.6mph /  7.4km/h 8mph /  12.9km/h 73.4% 0.00in /  0mm 146 W/m2
18:59 60.3 °F /  15.7 °C 52 °F /  11.1 °C 30.07in /  1018.2hPa West 3mph /  4.8km/h 9mph /  14.5km/h 74% 0.00in /  0mm 135 W/m2
19:04 60.4 °F /  15.8 °C 52.2 °F /  11.2 °C 30.07in /  1018.2hPa WSW 3.7mph /  6km/h 7mph /  11.3km/h 74% 0.00in /  0mm 105 W/m2
19:09 60.3 °F /  15.7 °C 52 °F /  11.1 °C 30.07in /  1018.2hPa WSW 3.4mph /  5.5km/h 7mph /  11.3km/h 74% 0.00in /  0mm 118 W/m2
19:14 60.3 °F /  15.7 °C 52 °F /  11.1 °C 30.07in /  1018.2hPa WSW 3.8mph /  6.1km/h 8mph /  12.9km/h 74% 0.00in /  0mm 98 W/m2
19:19 60.3 °F /  15.7 °C 52 °F /  11.1 °C 30.07in /  1018.2hPa WSW 4mph /  6.4km/h 8mph /  12.9km/h 74% 0.00in /  0mm 72 W/m2
19:24 60.3 °F /  15.7 °C 52 °F /  11.1 °C 30.07in /  1018.2hPa West 3.3mph /  5.3km/h 8mph /  12.9km/h 74% 0.00in /  0mm 139 W/m2
19:29 60.4 °F /  15.8 °C 52.2 °F /  11.2 °C 30.07in /  1018.2hPa WSW 5mph /  8km/h 10mph /  16.1km/h 74.4% 0.00in /  0mm 128 W/m2
19:34 60.2 °F /  15.7 °C 52.2 °F /  11.2 °C 30.07in /  1018.2hPa WSW 3.7mph /  6km/h 7mph /  11.3km/h 74.8% 0.00in /  0mm 111 W/m2
19:39 60.1 °F /  15.6 °C 52.2 °F /  11.2 °C 30.07in /  1018.2hPa WSW 5.5mph /  8.9km/h 8mph /  12.9km/h 75% 0.00in /  0mm 144 W/m2
19:44 59.8 °F /  15.4 °C 52.1 °F /  11.2 °C 30.07in /  1018.2hPa WSW 3.7mph /  6km/h 8mph /  12.9km/h 75.4% 0.00in /  0mm 105 W/m2
19:49 59.8 °F /  15.4 °C 52.2 °F /  11.2 °C 30.07in /  1018.2hPa SW 3.3mph /  5.3km/h 6mph /  9.7km/h 76% 0.00in /  0mm 105 W/m2
19:54 59.7 °F /  15.4 °C 52.2 °F /  11.2 °C 30.08in /  1018.5hPa SW 4.1mph /  6.6km/h 7mph /  11.3km/h 76% 0.00in /  0mm 100 W/m2
19:59 59.7 °F /  15.4 °C 52.2 °F /  11.2 °C 30.08in /  1018.5hPa WSW 4.4mph /  7.1km/h 6mph /  9.7km/h 76% 0.00in /  0mm 88 W/m2
20:04 59.7 °F /  15.4 °C 52.2 °F /  11.2 °C 30.08in /  1018.5hPa West 3.6mph /  5.8km/h 7mph /  11.3km/h 76% 0.00in /  0mm 72 W/m2
20:09 59.7 °F /  15.4 °C 52.2 °F /  11.2 °C 30.08in /  1018.5hPa WSW 2.8mph /  4.5km/h 5mph /  8km/h 76% 0.00in /  0mm 67 W/m2
20:14 59.6 °F /  15.3 °C 52.4 °F /  11.3 °C 30.08in /  1018.5hPa WSW 2.8mph /  4.5km/h 5mph /  8km/h 76.8% 0.00in /  0mm 58 W/m2
20:19 59.6 °F /  15.3 °C 52.4 °F /  11.3 °C 30.08in /  1018.5hPa WSW 1mph /  1.6km/h 5mph /  8km/h 77% 0.00in /  0mm 54 W/m2
20:24 59.6 °F /  15.3 °C 52.4 °F /  11.3 °C 30.08in /  1018.5hPa SW 2.1mph /  3.4km/h 6mph /  9.7km/h 77% 0.00in /  0mm 49 W/m2
20:29 59.5 °F /  15.3 °C 52.3 °F /  11.3 °C 30.08in /  1018.5hPa SW 2mph /  3.2km/h 5mph /  8km/h 77% 0.00in /  0mm 44 W/m2
20:34 59.5 °F /  15.3 °C 52.3 °F /  11.3 °C 30.08in /  1018.5hPa SW 2mph /  3.2km/h 4mph /  6.4km/h 77% 0.00in /  0mm 42 W/m2
20:39 59.4 °F /  15.2 °C 52.4 °F /  11.3 °C 30.08in /  1018.5hPa SW 2mph /  3.2km/h 4mph /  6.4km/h 77.8% 0.00in /  0mm 33 W/m2
20:44 59.4 °F /  15.2 °C 52.6 °F /  11.4 °C 30.08in /  1018.5hPa SW 1.4mph /  2.3km/h 4mph /  6.4km/h 78% 0.00in /  0mm 28 W/m2
20:49 59.4 °F /  15.2 °C 52.5 °F /  11.4 °C 30.08in /  1018.5hPa SW 2.4mph /  3.9km/h 5mph /  8km/h 78% 0.00in /  0mm 30 W/m2
20:54 59.3 °F /  15.2 °C 52.4 °F /  11.3 °C 30.08in /  1018.5hPa SW 3.3mph /  5.3km/h 7mph /  11.3km/h 78% 0.00in /  0mm 23 W/m2
20:59 59.2 °F /  15.1 °C 52.3 °F /  11.3 °C 30.08in /  1018.5hPa SW 2.7mph /  4.3km/h 4mph /  6.4km/h 78% 0.00in /  0mm 19 W/m2
21:04 59.2 °F /  15.1 °C 52.3 °F /  11.3 °C 30.08in /  1018.5hPa SW 1.6mph /  2.6km/h 3mph /  4.8km/h 78% 0.00in /  0mm 16 W/m2
21:09 59 °F /  15 °C 52.2 °F /  11.2 °C 30.08in /  1018.5hPa SW 1.6mph /  2.6km/h 2mph /  3.2km/h 78% 0.00in /  0mm 12 W/m2
21:14 58.8 °F /  14.9 °C 52 °F /  11.1 °C 30.08in /  1018.5hPa SW 0.4mph /  0.6km/h 3mph /  4.8km/h 78% 0.00in /  0mm 11 W/m2
21:19 58.7 °F /  14.8 °C 51.9 °F /  11.1 °C 30.08in /  1018.5hPa SW 1.9mph /  3.1km/h 4mph /  6.4km/h 78% 0.00in /  0mm 7 W/m2
21:24 58.6 °F /  14.8 °C 51.8 °F /  11 °C 30.08in /  1018.5hPa SW 2.1mph /  3.4km/h 4mph /  6.4km/h 78% 0.00in /  0mm 5 W/m2
21:29 58.5 °F /  14.7 °C 51.8 °F /  11 °C 30.08in /  1018.5hPa SW 3.2mph /  5.1km/h 6mph /  9.7km/h 78.2% 0.00in /  0mm 5 W/m2
21:34 58.5 °F /  14.7 °C 51.8 °F /  11 °C 30.08in /  1018.5hPa SW 2.8mph /  4.5km/h 5mph /  8km/h 78.4% 0.00in /  0mm 0 W/m2
21:39 58.5 °F /  14.7 °C 52 °F /  11.1 °C 30.08in /  1018.5hPa SW 2.4mph /  3.9km/h 4mph /  6.4km/h 79% 0.00in /  0mm 0 W/m2
21:44 58.5 °F /  14.7 °C 52 °F /  11.1 °C 30.08in /  1018.5hPa SW 0.9mph /  1.4km/h 4mph /  6.4km/h 79% 0.00in /  0mm 0 W/m2
21:49 58.3 °F /  14.6 °C 52 °F /  11.1 °C 30.08in /  1018.5hPa SSW 3.2mph /  5.1km/h 6mph /  9.7km/h 79.4% 0.00in /  0mm 0 W/m2
21:54 58.1 °F /  14.5 °C 52 °F /  11.1 °C 30.08in /  1018.5hPa SW 3.4mph /  5.5km/h 7mph /  11.3km/h 80% 0.00in /  0mm 0 W/m2
21:59 57.8 °F /  14.3 °C 51.9 °F /  11.1 °C 30.09in /  1018.8hPa SW 3.3mph /  5.3km/h 6mph /  9.7km/h 80.6% 0.00in /  0mm 0 W/m2
22:04 57.6 °F /  14.2 °C 51.9 °F /  11.1 °C 30.09in /  1018.8hPa SW 2.7mph /  4.3km/h 7mph /  11.3km/h 81% 0.00in /  0mm 0 W/m2
22:09 57.4 °F /  14.1 °C 51.9 °F /  11.1 °C 30.09in /  1018.8hPa SW 1.6mph /  2.6km/h 5mph /  8km/h 81.6% 0.00in /  0mm 0 W/m2
22:14 57.3 °F /  14.1 °C 51.9 °F /  11.1 °C 30.09in /  1018.8hPa SW 2.5mph /  4km/h 6mph /  9.7km/h 82% 0.00in /  0mm 0 W/m2
22:19 57.1 °F /  13.9 °C 51.9 °F /  11.1 °C 30.09in /  1018.8hPa SSW 1.8mph /  2.9km/h 6mph /  9.7km/h 82.6% 0.00in /  0mm 0 W/m2
22:24 56.9 °F /  13.8 °C 51.8 °F /  11 °C 30.09in /  1018.8hPa SSW 2.2mph /  3.5km/h 6mph /  9.7km/h 82.8% 0.00in /  0mm 0 W/m2
22:29 56.8 °F /  13.8 °C 51.8 °F /  11 °C 30.09in /  1018.8hPa SSW 2.1mph /  3.4km/h 4mph /  6.4km/h 83% 0.00in /  0mm 0 W/m2
22:34 56.6 °F /  13.7 °C 51.5 °F /  10.8 °C 30.09in /  1018.8hPa SW 3mph /  4.8km/h 7mph /  11.3km/h 83% 0.00in /  0mm 0 W/m2
22:39 56.4 °F /  13.6 °C 51.4 °F /  10.8 °C 30.09in /  1018.8hPa SW 1.9mph /  3.1km/h 6mph /  9.7km/h 83% 0.00in /  0mm 0 W/m2
22:44 56.2 °F /  13.4 °C 51.4 °F /  10.8 °C 30.09in /  1018.8hPa SW 2.1mph /  3.4km/h 6mph /  9.7km/h 84% 0.00in /  0mm 0 W/m2
22:49 56 °F /  13.3 °C 51.3 °F /  10.7 °C 30.09in /  1018.8hPa SW 3.2mph /  5.1km/h 4mph /  6.4km/h 84% 0.00in /  0mm 0 W/m2
22:54 55.9 °F /  13.3 °C 51.2 °F /  10.7 °C 30.09in /  1018.8hPa SW 1.8mph /  2.9km/h 4mph /  6.4km/h 84% 0.00in /  0mm 0 W/m2
22:59 55.8 °F /  13.2 °C 51.1 °F /  10.6 °C 30.09in /  1018.8hPa SW 1.3mph /  2.1km/h 5mph /  8km/h 84% 0.00in /  0mm 0 W/m2
23:04 55.6 °F /  13.1 °C 50.9 °F /  10.5 °C 30.09in /  1018.8hPa WSW 1.8mph /  2.9km/h 5mph /  8km/h 84.2% 0.00in /  0mm 0 W/m2
23:09 55.5 °F /  13.1 °C 51 °F /  10.6 °C 30.10in /  1019.2hPa West 3.1mph /  5km/h 6mph /  9.7km/h 85% 0.00in /  0mm 0 W/m2
23:14 55.4 °F /  13 °C 50.9 °F /  10.5 °C 30.10in /  1019.2hPa WSW 3.4mph /  5.5km/h 8mph /  12.9km/h 85% 0.00in /  0mm 0 W/m2
23:19 55.4 °F /  13 °C 50.9 °F /  10.5 °C 30.10in /  1019.2hPa WSW 2.4mph /  3.9km/h 7mph /  11.3km/h 85% 0.00in /  0mm 0 W/m2
23:24 55.2 °F /  12.9 °C 50.7 °F /  10.4 °C 30.10in /  1019.2hPa SW 2.9mph /  4.7km/h 6mph /  9.7km/h 85% 0.00in /  0mm 0 W/m2
23:29 55.2 °F /  12.9 °C 50.7 °F /  10.4 °C 30.10in /  1019.2hPa SW 4mph /  6.4km/h 6mph /  9.7km/h 85% 0.00in /  0mm 0 W/m2
23:34 55 °F /  12.8 °C 50.5 °F /  10.3 °C 30.10in /  1019.2hPa SW 2.7mph /  4.3km/h 7mph /  11.3km/h 85% 0.00in /  0mm 0 W/m2
23:39 55 °F /  12.8 °C 50.5 °F /  10.3 °C 30.10in /  1019.2hPa SW 3.6mph /  5.8km/h 8mph /  12.9km/h 85% 0.00in /  0mm 0 W/m2
23:44 55 °F /  12.8 °C 50.5 °F /  10.3 °C 30.10in /  1019.2hPa SW 4.1mph /  6.6km/h 7mph /  11.3km/h 85% 0.00in /  0mm 0 W/m2
23:49 55 °F /  12.8 °C 50.5 °F /  10.3 °C 30.10in /  1019.2hPa SW 4.5mph /  7.2km/h 9mph /  14.5km/h 84.8% 0.00in /  0mm 0 W/m2
23:54 54.9 °F /  12.7 °C 50.2 °F /  10.1 °C 30.10in /  1019.2hPa SW 3.1mph /  5km/h 7mph /  11.3km/h 84% 0.00in /  0mm 0 W/m2
23:59 54.8 °F /  12.7 °C 50.1 °F /  10.1 °C 30.10in /  1019.2hPa SW 4.8mph /  7.7km/h 9mph /  14.5km/h 84% 0.00in /  0mm 0 W/m2
Bath Spa Weather
Compliments of Weather Underground - 2 mb